East Windsor, New Jersey
Current Conditions -  °F | °C
As of 12:53 AM on Friday 19 Dec 2014 (Local Time) from KTTN Reporting Station
Overcast Overcast  
Wind Chill: 29°   Ceiling: 3300
Heat Index: 36°   Visibility: 10mi
Dew Point: 25°   Wind: 9mph
Humidity: 64%   Direction: 300°WNW
Pressure: 29.99"   Gusts: NA
Location:  40.252°N, 74.5126°W
Report Text: KTTN 190553Z AUTO 30008KT 10SM OVC033 02/M04 A2999 RMK AO2 SLP152 T00221039 10028 20017 58005
Loading
Personal Weather Stations






























Interactive Weather Map New forecast layout! Learn more

10-Day Weather Forecast

Advertisements
Track Severe Weather on mobile